createdAt,value
2023-03-23T15:57:52.623Z,9.30
2023-03-23T16:00:21.154Z,9.65
2023-03-23T16:02:53.225Z,12.60
2023-03-23T16:05:22.394Z,11.52
2023-03-23T16:07:50.307Z,10.95
2023-03-23T16:10:19.800Z,16.00
2023-03-23T16:12:46.976Z,22.02
2023-03-23T16:15:14.543Z,60.00
2023-03-23T16:17:41.758Z,25.40
2023-03-23T16:20:17.837Z,53.35
2023-03-23T16:22:44.530Z,34.10
2023-03-23T16:25:11.621Z,18.60
2023-03-23T16:27:40.073Z,17.58
2023-03-23T16:30:22.631Z,33.10
2023-03-23T16:32:49.418Z,26.38
2023-03-23T16:35:16.787Z,29.00
2023-03-23T16:37:48.449Z,25.92
2023-03-23T16:40:16.848Z,29.38
2023-03-23T16:42:43.925Z,21.77
2023-03-23T16:45:13.172Z,22.73
2023-03-23T16:47:40.708Z,21.45
2023-03-23T16:50:11.800Z,23.23
2023-03-23T16:52:46.178Z,23.67
2023-03-23T16:55:15.861Z,25.33
2023-03-23T16:57:43.481Z,23.13
2023-03-23T17:00:15.713Z,26.52
2023-03-23T17:02:43.618Z,38.65
2023-03-23T17:05:11.456Z,31.30
2023-03-23T17:07:42.410Z,38.08
2023-03-23T17:10:11.114Z,45.22
2023-03-23T17:12:37.806Z,32.22
2023-03-23T17:15:05.491Z,32.72
2023-03-23T17:17:32.598Z,20.23
2023-03-23T17:20:01.167Z,39.28
2023-03-23T17:22:29.209Z,26.30
2023-03-23T17:24:57.496Z,24.85
2023-03-23T17:27:25.128Z,55.72
2023-03-23T17:29:52.386Z,50.50
2023-03-23T17:32:20.782Z,28.60
2023-03-23T17:34:47.486Z,22.42
2023-03-23T17:37:14.274Z,21.38
2023-03-23T17:39:43.136Z,20.67
2023-03-23T17:42:10.884Z,31.15
2023-03-23T17:44:37.696Z,23.45
2023-03-23T17:47:04.625Z,30.83
2023-03-23T17:49:31.737Z,25.70
2023-03-23T17:51:59.529Z,28.02
2023-03-23T17:54:26.542Z,22.90
2023-03-23T17:56:53.766Z,18.92
2023-03-23T17:59:23.400Z,21.10
2023-03-23T18:01:50.502Z,22.25
2023-03-23T18:04:17.287Z,29.02
2023-03-23T18:06:44.100Z,82.05
2023-03-23T18:09:11.077Z,102.22
2023-03-23T18:11:37.817Z,74.88
2023-03-23T18:14:05.097Z,55.72
2023-03-23T18:16:31.908Z,50.10
2023-03-23T18:18:58.727Z,52.40
2023-03-23T18:21:27.139Z,51.53
2023-03-23T18:23:59.571Z,48.13
2023-03-23T18:26:27.777Z,52.53
2023-03-23T18:28:54.619Z,67.82
2023-03-23T18:31:21.884Z,65.20
2023-03-23T18:33:51.339Z,68.68
2023-03-23T18:36:21.241Z,64.72
2023-03-23T18:38:48.830Z,46.17
2023-03-23T18:41:17.367Z,56.80
2023-03-23T18:43:44.539Z,57.28
2023-03-23T18:46:11.247Z,73.32
2023-03-23T18:48:37.979Z,67.38
2023-03-23T18:51:05.195Z,67.18
2023-03-23T18:53:32.271Z,36.40
2023-03-23T18:56:11.236Z,54.53
2023-03-23T18:58:38.484Z,40.75
2023-03-23T19:01:12.382Z,28.60
2023-03-23T19:03:40.527Z,51.92
2023-03-23T19:06:15.481Z,32.45
2023-03-23T19:08:45.330Z,45.08
2023-03-23T19:11:13.162Z,50.50
2023-03-23T19:13:47.123Z,54.22
2023-03-23T19:16:21.105Z,52.45
2023-03-23T19:18:47.885Z,52.33
2023-03-23T19:21:17.567Z,44.03
2023-03-23T19:23:47.252Z,42.42
2023-03-23T19:26:23.377Z,32.42
2023-03-23T19:31:22.734Z,30.13
2023-03-23T19:33:49.582Z,27.15
2023-03-23T19:36:16.997Z,31.77
2023-03-23T19:38:44.057Z,46.75
2023-03-23T19:41:11.180Z,40.25
2023-03-23T19:43:38.075Z,47.55
2023-03-23T19:46:05.180Z,52.47
2023-03-23T19:48:31.993Z,41.95
2023-03-23T19:50:58.902Z,29.27
2023-03-23T19:53:26.727Z,38.72
2023-03-23T19:55:53.768Z,42.15
2023-03-23T19:58:21.223Z,44.40
2023-03-23T20:00:48.626Z,34.95
2023-03-23T20:03:17.308Z,30.33
2023-03-23T20:05:45.250Z,30.80
2023-03-23T20:08:12.712Z,34.45
2023-03-23T20:10:41.124Z,33.95
2023-03-23T20:13:08.296Z,34.78
2023-03-23T20:15:34.989Z,37.60
2023-03-23T20:18:02.090Z,32.55
2023-03-23T20:20:36.652Z,35.97
2023-03-23T20:23:04.688Z,38.33
2023-03-23T20:25:31.478Z,33.90
2023-03-23T20:27:58.281Z,52.45
2023-03-23T20:30:25.736Z,39.30
2023-03-23T20:32:53.721Z,31.42
2023-03-23T20:35:22.517Z,26.60
2023-03-23T20:37:50.712Z,24.45
2023-03-23T20:40:18.715Z,25.95
2023-03-23T20:42:45.553Z,27.63
2023-03-23T20:45:13.384Z,25.15
2023-03-23T20:47:41.364Z,29.85
2023-03-23T20:50:10.154Z,25.10
2023-03-23T20:52:37.228Z,22.77
2023-03-23T20:55:04.649Z,21.85
2023-03-23T20:57:31.329Z,20.52
2023-03-23T20:59:58.305Z,19.58
2023-03-23T21:02:29.878Z,22.00
2023-03-23T21:04:58.265Z,22.15
2023-03-23T21:07:27.462Z,25.92
2023-03-23T21:09:56.240Z,27.08
2023-03-23T21:12:22.960Z,33.70
2023-03-23T21:14:49.738Z,36.05
2023-03-23T21:17:16.435Z,33.47
2023-03-23T21:19:43.430Z,32.75
2023-03-23T21:22:14.667Z,26.85
2023-03-23T21:24:41.379Z,21.95
2023-03-23T21:27:08.246Z,20.27
2023-03-23T21:29:34.883Z,18.63
2023-03-23T21:32:08.098Z,22.42
2023-03-23T21:34:36.813Z,24.67
2023-03-23T21:37:03.738Z,22.13
2023-03-23T21:39:30.429Z,22.42
2023-03-23T21:41:59.597Z,26.38
2023-03-23T21:44:26.451Z,27.80
2023-03-23T21:46:54.611Z,24.10
2023-03-23T21:49:21.821Z,28.80
2023-03-23T21:51:49.567Z,23.42
2023-03-23T21:54:16.352Z,26.77
2023-03-23T21:56:43.257Z,23.08
2023-03-23T21:59:09.972Z,31.30
2023-03-23T22:01:37.330Z,30.42
2023-03-23T22:04:05.429Z,25.33
2023-03-23T22:06:34.553Z,22.80
2023-03-23T22:09:05.317Z,36.75
2023-03-23T22:11:32.944Z,42.67
2023-03-23T22:14:00.871Z,31.45
2023-03-23T22:16:28.139Z,32.40
2023-03-23T22:18:56.949Z,30.75
2023-03-23T22:21:26.434Z,24.42
2023-03-23T22:23:55.422Z,22.33
2023-03-23T22:26:22.601Z,20.15
2023-03-23T22:28:51.044Z,21.10
2023-03-23T22:31:23.730Z,26.40
2023-03-23T22:33:56.114Z,24.65
2023-03-23T22:36:28.289Z,20.33
2023-03-23T22:38:56.483Z,32.83
2023-03-23T22:41:26.227Z,25.88
2023-03-23T22:43:53.317Z,24.10
2023-03-23T22:46:21.063Z,33.73
2023-03-23T22:48:48.127Z,25.88
2023-03-23T22:51:16.979Z,22.30
2023-03-23T22:53:44.296Z,20.00
2023-03-23T22:56:11.758Z,21.02
2023-03-23T22:58:38.892Z,22.30
2023-03-23T23:01:09.216Z,21.13
2023-03-23T23:03:36.930Z,18.83
2023-03-23T23:06:04.393Z,19.90
2023-03-23T23:08:32.994Z,25.40
2023-03-23T23:11:02.131Z,31.75
2023-03-23T23:13:31.218Z,21.70
2023-03-23T23:16:01.666Z,23.60
2023-03-23T23:18:30.499Z,20.93
2023-03-23T23:20:59.811Z,19.50
2023-03-23T23:23:27.949Z,18.93
2023-03-23T23:25:54.918Z,23.70
2023-03-23T23:28:22.958Z,22.87
2023-03-23T23:30:50.965Z,26.70
2023-03-23T23:33:18.855Z,25.07
2023-03-23T23:35:46.414Z,33.05
2023-03-23T23:38:13.602Z,28.83
2023-03-23T23:40:44.414Z,25.67
2023-03-23T23:43:13.273Z,30.07
2023-03-23T23:45:40.922Z,26.47
2023-03-23T23:48:08.447Z,23.60
2023-03-23T23:50:35.486Z,22.97
2023-03-23T23:53:02.228Z,24.30
2023-03-23T23:55:28.937Z,21.47
2023-03-23T23:57:56.177Z,22.77
